Time;durP1;ratioP1;P1;durP2;ratioP2;P2;SDS_P1;SDS_P2;PMS_P1;PMS_P2;Temp;Humidity;BMP_temperature;BMP_pressure;BME280_temperature;BME280_humidity;BME280_pressure;Samples;Min_cycle;Max_cycle;Signal;HPM_P1;HPM_P2
2021/11/21 00:01:21;;;;;;;;;;;19.50;37.00;;;;;;478791;247;1139;-74
2021/11/21 00:03:22;;;;;;;;;;;19.40;37.20;;;;;;478922;247;956;-74
2021/11/21 00:05:24;;;;;;;;;;;19.30;37.40;;;;;;478930;247;997;-74
2021/11/21 00:07:25;;;;;;;;;;;19.30;37.60;;;;;;478861;247;1228;-74
2021/11/21 00:09:27;;;;;;;;;;;19.20;37.70;;;;;;478913;247;945;-74
2021/11/21 00:11:28;;;;;;;;;;;19.10;37.70;;;;;;478853;247;1125;-74
2021/11/21 00:13:29;;;;;;;;;;;19.10;37.80;;;;;;478947;247;1135;-74
2021/11/21 00:15:31;;;;;;;;;;;19.10;37.80;;;;;;478928;247;1246;-74
2021/11/21 00:17:32;;;;;;;;;;;19.10;37.80;;;;;;478925;247;1083;-74
2021/11/21 00:19:33;;;;;;;;;;;19.10;37.80;;;;;;478961;247;2120;-74
2021/11/21 00:21:35;;;;;;;;;;;19.10;37.80;;;;;;478901;247;1218;-74
2021/11/21 00:23:36;;;;;;;;;;;19.10;37.80;;;;;;478929;247;962;-74
2021/11/21 00:25:37;;;;;;;;;;;19.00;37.80;;;;;;478970;247;1322;-74
2021/11/21 00:27:39;;;;;;;;;;;19.00;37.80;;;;;;478979;247;1125;-74
2021/11/21 00:29:40;;;;;;;;;;;19.10;37.80;;;;;;478924;247;1149;-74
2021/11/21 00:31:41;;;;;;;;;;;19.10;37.80;;;;;;478869;247;1206;-74
2021/11/21 00:33:43;;;;;;;;;;;19.00;37.80;;;;;;478889;247;953;-74
2021/11/21 00:35:44;;;;;;;;;;;19.00;37.80;;;;;;478934;247;954;-74
2021/11/21 00:37:45;;;;;;;;;;;19.00;37.70;;;;;;478852;247;1202;-74
2021/11/21 00:39:47;;;;;;;;;;;19.10;37.60;;;;;;478937;247;2194;-74
2021/11/21 00:41:48;;;;;;;;;;;19.10;37.50;;;;;;478856;247;1171;-74
2021/11/21 00:43:49;;;;;;;;;;;19.10;37.50;;;;;;478975;247;1134;-74
2021/11/21 00:45:51;;;;;;;;;;;19.10;37.60;;;;;;478841;247;1134;-74
2021/11/21 00:47:52;;;;;;;;;;;19.10;37.60;;;;;;478845;247;1202;-74
2021/11/21 00:49:53;;;;;;;;;;;19.00;37.60;;;;;;478955;247;1037;-74
2021/11/21 00:51:55;;;;;;;;;;;19.00;37.70;;;;;;478839;247;1216;-74
2021/11/21 00:54:05;;;;;;;;;;;19.00;37.70;;;;;;478866;247;949;-74
2021/11/21 00:56:02;;;;;;;;;;;19.00;37.80;;;;;;478310;248;1439;-74
2021/11/21 00:58:03;;;;;;;;;;;19.00;37.80;;;;;;478941;247;2202;-74
2021/11/21 01:00:04;;;;;;;;;;;19.00;37.80;;;;;;478887;247;1166;-74
2021/11/21 01:02:09;;;;;;;;;;;19.00;37.80;;;;;;478835;247;1312;-74
2021/11/21 01:04:08;;;;;;;;;;;19.00;37.80;;;;;;478700;248;1388;-74
2021/11/21 01:06:09;;;;;;;;;;;19.00;37.70;;;;;;478782;247;1236;-74
2021/11/21 01:08:11;;;;;;;;;;;19.00;37.70;;;;;;479015;247;1124;-74
2021/11/21 01:10:12;;;;;;;;;;;18.90;37.70;;;;;;478990;247;1066;-74
2021/11/21 01:12:14;;;;;;;;;;;18.90;37.70;;;;;;478951;247;1204;-74
2021/11/21 01:14:15;;;;;;;;;;;18.90;37.70;;;;;;478882;247;1114;-74
2021/11/21 01:16:16;;;;;;;;;;;18.90;37.80;;;;;;478871;247;1006;-74
2021/11/21 01:18:18;;;;;;;;;;;18.90;37.80;;;;;;478897;247;2120;-74
2021/11/21 01:20:19;;;;;;;;;;;18.90;37.70;;;;;;478926;247;961;-74
2021/11/21 01:22:20;;;;;;;;;;;18.90;37.70;;;;;;478846;247;964;-74
2021/11/21 01:24:22;;;;;;;;;;;18.90;37.70;;;;;;478900;247;960;-74
2021/11/21 01:26:23;;;;;;;;;;;18.90;37.80;;;;;;478822;247;1161;-74
2021/11/21 01:28:25;;;;;;;;;;;18.80;37.80;;;;;;478866;247;1297;-74
2021/11/21 01:30:26;;;;;;;;;;;18.80;37.90;;;;;;478820;247;1123;-74
2021/11/21 01:32:27;;;;;;;;;;;18.80;37.90;;;;;;478819;247;971;-74
2021/11/21 01:34:29;;;;;;;;;;;18.80;37.90;;;;;;478921;247;942;-74
2021/11/21 01:36:30;;;;;;;;;;;18.80;38.00;;;;;;478822;247;1070;-73
2021/11/21 01:38:31;;;;;;;;;;;18.80;38.00;;;;;;478904;247;2198;-73
2021/11/21 01:40:33;;;;;;;;;;;18.80;37.90;;;;;;478893;247;1169;-73
2021/11/21 01:42:34;;;;;;;;;;;18.80;37.90;;;;;;478885;247;1144;-74
2021/11/21 01:44:35;;;;;;;;;;;18.90;37.90;;;;;;478944;247;989;-74
2021/11/21 01:46:37;;;;;;;;;;;18.90;37.90;;;;;;478869;247;1127;-74
2021/11/21 01:48:38;;;;;;;;;;;18.80;37.80;;;;;;478895;247;983;-73
2021/11/21 01:50:39;;;;;;;;;;;18.90;37.90;;;;;;478938;247;1119;-73
2021/11/21 01:52:41;;;;;;;;;;;18.80;37.90;;;;;;478901;247;1274;-74
2021/11/21 01:54:42;;;;;;;;;;;18.80;37.90;;;;;;478945;247;947;-74
2021/11/21 01:56:43;;;;;;;;;;;18.90;38.00;;;;;;478890;247;1143;-74
2021/11/21 01:58:45;;;;;;;;;;;18.90;37.90;;;;;;478973;247;2194;-74
2021/11/21 02:00:46;;;;;;;;;;;18.90;37.80;;;;;;478891;247;985;-74
2021/11/21 02:02:47;;;;;;;;;;;18.80;37.80;;;;;;478955;247;1172;-74
2021/11/21 02:04:49;;;;;;;;;;;18.90;37.80;;;;;;478938;247;941;-74
2021/11/21 02:06:50;;;;;;;;;;;18.80;37.80;;;;;;478855;247;1216;-74
2021/11/21 02:08:52;;;;;;;;;;;18.80;37.90;;;;;;478938;247;984;-74
2021/11/21 02:10:58;;;;;;;;;;;18.80;37.80;;;;;;478969;247;1226;-74
2021/11/21 02:12:55;;;;;;;;;;;18.80;37.90;;;;;;478664;248;1455;-74
2021/11/21 02:14:56;;;;;;;;;;;18.80;37.90;;;;;;478923;247;1087;-74
2021/11/21 02:16:57;;;;;;;;;;;18.80;37.90;;;;;;478844;247;1139;-74
2021/11/21 02:18:59;;;;;;;;;;;18.80;37.90;;;;;;478921;247;2116;-74
2021/11/21 02:21:00;;;;;;;;;;;18.80;37.90;;;;;;478851;247;1234;-74
2021/11/21 02:23:01;;;;;;;;;;;18.80;37.90;;;;;;478916;247;1084;-74
2021/11/21 02:25:03;;;;;;;;;;;18.80;37.90;;;;;;478917;247;956;-74
2021/11/21 02:27:04;;;;;;;;;;;18.70;37.80;;;;;;478836;247;1160;-74
2021/11/21 02:29:05;;;;;;;;;;;18.70;37.80;;;;;;478912;245;1206;-74
2021/11/21 02:31:07;;;;;;;;;;;18.70;37.90;;;;;;478852;247;1345;-74
2021/11/21 02:33:08;;;;;;;;;;;18.70;37.90;;;;;;478874;247;1209;-74
2021/11/21 02:35:10;;;;;;;;;;;18.70;37.90;;;;;;478878;247;1080;-74
2021/11/21 02:37:11;;;;;;;;;;;18.70;37.90;;;;;;478806;247;1204;-74
2021/11/21 02:39:12;;;;;;;;;;;18.70;37.90;;;;;;478835;247;2184;-74
2021/11/21 02:41:14;;;;;;;;;;;18.70;37.90;;;;;;478789;247;1224;-74
2021/11/21 02:43:15;;;;;;;;;;;18.70;37.80;;;;;;478985;247;1107;-74
2021/11/21 02:45:16;;;;;;;;;;;18.70;37.80;;;;;;478981;247;945;-74
2021/11/21 02:47:18;;;;;;;;;;;18.70;37.80;;;;;;478920;247;1115;-74
2021/11/21 02:49:19;;;;;;;;;;;18.70;37.80;;;;;;478961;247;1013;-74
2021/11/21 02:51:21;;;;;;;;;;;18.70;37.80;;;;;;478940;247;1364;-74
2021/11/21 02:53:22;;;;;;;;;;;18.70;37.80;;;;;;478989;247;1320;-74
2021/11/21 02:55:23;;;;;;;;;;;18.70;37.80;;;;;;478899;247;1127;-74
2021/11/21 02:57:24;;;;;;;;;;;18.70;37.80;;;;;;478834;247;1115;-74
2021/11/21 02:59:26;;;;;;;;;;;18.70;37.80;;;;;;478914;247;2179;-74
2021/11/21 03:01:28;;;;;;;;;;;18.70;37.70;;;;;;478803;247;966;-74
2021/11/21 03:03:29;;;;;;;;;;;18.70;37.60;;;;;;478806;247;1356;-74
2021/11/21 03:05:30;;;;;;;;;;;18.80;37.50;;;;;;478867;247;1001;-74
2021/11/21 03:07:31;;;;;;;;;;;18.80;37.40;;;;;;478842;247;1097;-74
2021/11/21 03:09:33;;;;;;;;;;;18.80;37.30;;;;;;478988;247;1059;-74
2021/11/21 03:11:34;;;;;;;;;;;18.80;37.30;;;;;;478913;247;1166;-74
2021/11/21 03:13:35;;;;;;;;;;;18.80;37.20;;;;;;478928;247;1108;-74
2021/11/21 03:15:37;;;;;;;;;;;18.80;37.20;;;;;;478914;247;973;-74
2021/11/21 03:17:39;;;;;;;;;;;18.90;37.10;;;;;;478918;247;1172;-74
2021/11/21 03:19:40;;;;;;;;;;;18.90;37.00;;;;;;478939;247;2178;-74
2021/11/21 03:21:41;;;;;;;;;;;18.90;37.00;;;;;;478861;247;1217;-74
2021/11/21 03:23:42;;;;;;;;;;;18.90;37.00;;;;;;478837;247;953;-74
2021/11/21 03:25:44;;;;;;;;;;;18.90;37.00;;;;;;478859;247;967;-74
2021/11/21 03:27:45;;;;;;;;;;;18.90;36.90;;;;;;478859;247;1150;-74
2021/11/21 03:29:46;;;;;;;;;;;19.00;36.90;;;;;;478901;247;1178;-74
2021/11/21 03:31:48;;;;;;;;;;;19.00;36.90;;;;;;478892;247;1117;-74
2021/11/21 03:33:49;;;;;;;;;;;19.00;36.80;;;;;;479005;247;1059;-74
2021/11/21 03:35:50;;;;;;;;;;;19.00;36.70;;;;;;478945;247;957;-74
2021/11/21 03:37:52;;;;;;;;;;;19.00;36.70;;;;;;478932;247;1123;-74
2021/11/21 03:39:53;;;;;;;;;;;19.00;36.70;;;;;;478971;247;2190;-74
2021/11/21 03:41:55;;;;;;;;;;;19.00;36.70;;;;;;478904;247;1128;-74
2021/11/21 03:43:56;;;;;;;;;;;19.00;36.70;;;;;;478896;247;1215;-74
2021/11/21 03:45:58;;;;;;;;;;;19.00;36.70;;;;;;478829;247;1073;-74
2021/11/21 03:47:59;;;;;;;;;;;19.00;36.60;;;;;;478921;247;947;-74
2021/11/21 03:50:00;;;;;;;;;;;19.00;36.60;;;;;;478971;247;1024;-74
2021/11/21 03:52:01;;;;;;;;;;;19.00;36.50;;;;;;478895;247;1138;-74
2021/11/21 03:54:03;;;;;;;;;;;19.00;36.40;;;;;;478921;247;1149;-74
2021/11/21 03:56:04;;;;;;;;;;;19.00;36.40;;;;;;478888;247;1301;-74
2021/11/21 03:58:05;;;;;;;;;;;19.00;36.40;;;;;;478865;247;1209;-74
2021/11/21 04:00:07;;;;;;;;;;;19.00;36.40;;;;;;478879;247;2174;-74
2021/11/21 04:02:08;;;;;;;;;;;19.00;36.40;;;;;;478906;247;1060;-74
2021/11/21 04:04:10;;;;;;;;;;;19.00;36.30;;;;;;478936;247;958;-74
2021/11/21 04:06:11;;;;;;;;;;;19.00;36.30;;;;;;478946;247;1129;-74
2021/11/21 04:08:12;;;;;;;;;;;19.00;36.30;;;;;;478916;247;961;-74
2021/11/21 04:10:14;;;;;;;;;;;19.00;36.30;;;;;;478942;247;1095;-74
2021/11/21 04:12:15;;;;;;;;;;;19.00;36.20;;;;;;478895;247;1191;-74
2021/11/21 04:14:16;;;;;;;;;;;19.00;36.20;;;;;;478815;247;1315;-74
2021/11/21 04:16:18;;;;;;;;;;;19.00;36.20;;;;;;478747;247;1134;-74
2021/11/21 04:18:19;;;;;;;;;;;19.10;36.20;;;;;;478945;247;976;-74
2021/11/21 04:20:20;;;;;;;;;;;19.10;36.10;;;;;;479039;247;2198;-74
2021/11/21 04:22:22;;;;;;;;;;;19.10;36.10;;;;;;478924;247;1285;-74
2021/11/21 04:24:23;;;;;;;;;;;19.10;36.10;;;;;;478923;247;932;-74
2021/11/21 04:26:25;;;;;;;;;;;19.00;36.10;;;;;;478902;247;1077;-74
2021/11/21 04:28:26;;;;;;;;;;;19.00;36.10;;;;;;478929;247;916;-74
2021/11/21 04:30:28;;;;;;;;;;;19.00;36.10;;;;;;478956;247;1197;-74
2021/11/21 04:32:30;;;;;;;;;;;19.10;36.10;;;;;;478923;247;1070;-74
2021/11/21 04:34:31;;;;;;;;;;;19.10;36.00;;;;;;478930;247;1056;-74
2021/11/21 04:36:33;;;;;;;;;;;19.10;36.00;;;;;;478837;247;1205;-74
2021/11/21 04:38:34;;;;;;;;;;;19.10;36.00;;;;;;478915;247;1004;-74
2021/11/21 04:40:35;;;;;;;;;;;19.10;36.00;;;;;;478820;247;2171;-74
2021/11/21 04:42:37;;;;;;;;;;;19.10;36.00;;;;;;478837;247;1075;-74
2021/11/21 04:44:38;;;;;;;;;;;19.10;35.90;;;;;;478908;247;1257;-74
2021/11/21 04:46:39;;;;;;;;;;;19.10;36.00;;;;;;478873;247;1126;-74
2021/11/21 04:48:41;;;;;;;;;;;19.10;35.90;;;;;;478936;247;993;-74
2021/11/21 04:50:42;;;;;;;;;;;19.10;35.90;;;;;;478937;247;1237;-74
2021/11/21 04:52:43;;;;;;;;;;;19.10;36.00;;;;;;478909;247;1121;-74
2021/11/21 04:54:45;;;;;;;;;;;19.10;35.90;;;;;;478826;247;973;-74
2021/11/21 04:56:47;;;;;;;;;;;19.00;35.90;;;;;;478741;247;1147;-74
2021/11/21 04:58:47;;;;;;;;;;;19.00;35.90;;;;;;478814;248;1597;-74
2021/11/21 05:00:49;;;;;;;;;;;19.10;35.90;;;;;;478841;247;2167;-74
2021/11/21 05:02:50;;;;;;;;;;;19.00;35.80;;;;;;478861;247;970;-74
2021/11/21 05:04:51;;;;;;;;;;;19.00;35.80;;;;;;478916;247;977;-74
2021/11/21 05:06:53;;;;;;;;;;;19.10;35.80;;;;;;478853;247;1063;-74
2021/11/21 05:08:54;;;;;;;;;;;19.00;35.70;;;;;;478936;247;963;-74
2021/11/21 05:10:55;;;;;;;;;;;19.10;35.80;;;;;;478913;247;1207;-74
2021/11/21 05:12:57;;;;;;;;;;;19.10;35.70;;;;;;478888;247;1226;-74
2021/11/21 05:15:00;;;;;;;;;;;19.00;35.70;;;;;;478811;247;1254;-74
2021/11/21 05:17:00;;;;;;;;;;;19.10;35.70;;;;;;478670;248;1495;-74
2021/11/21 05:19:01;;;;;;;;;;;19.00;35.60;;;;;;478806;247;1084;-74
2021/11/21 05:21:02;;;;;;;;;;;19.00;35.60;;;;;;478778;247;2190;-74
2021/11/21 05:23:04;;;;;;;;;;;19.10;35.50;;;;;;478867;247;1131;-74
2021/11/21 05:25:05;;;;;;;;;;;19.00;35.40;;;;;;478894;247;1094;-74
2021/11/21 05:27:06;;;;;;;;;;;19.10;35.50;;;;;;478873;247;1144;-74
2021/11/21 05:29:08;;;;;;;;;;;19.00;35.40;;;;;;479014;247;942;-74
2021/11/21 05:31:09;;;;;;;;;;;19.00;35.40;;;;;;478874;247;1305;-74
2021/11/21 05:33:10;;;;;;;;;;;19.10;35.50;;;;;;478905;247;1131;-74
2021/11/21 05:35:13;;;;;;;;;;;19.00;35.40;;;;;;478897;247;1074;-74
2021/11/21 05:37:13;;;;;;;;;;;19.00;35.40;;;;;;478830;248;1414;-74
2021/11/21 05:39:16;;;;;;;;;;;19.00;35.40;;;;;;478896;247;1126;-74
2021/11/21 05:41:16;;;;;;;;;;;19.00;35.40;;;;;;478746;248;2175;-74
2021/11/21 05:43:17;;;;;;;;;;;19.10;35.50;;;;;;478944;247;1075;-74
2021/11/21 05:45:19;;;;;;;;;;;19.10;35.40;;;;;;478905;247;1213;-74
2021/11/21 05:47:20;;;;;;;;;;;19.00;35.40;;;;;;478961;247;1039;-74
2021/11/21 05:49:21;;;;;;;;;;;19.10;35.40;;;;;;478879;247;955;-74
2021/11/21 05:51:23;;;;;;;;;;;19.10;35.40;;;;;;478775;247;1283;-74
2021/11/21 05:53:24;;;;;;;;;;;19.00;35.30;;;;;;478922;247;1126;-74
2021/11/21 05:55:26;;;;;;;;;;;19.10;35.40;;;;;;478886;247;1181;-74
2021/11/21 05:57:27;;;;;;;;;;;19.10;35.30;;;;;;478904;247;1132;-74
2021/11/21 05:59:28;;;;;;;;;;;19.10;35.20;;;;;;478939;247;974;-74
2021/11/21 06:01:30;;;;;;;;;;;19.10;35.20;;;;;;478864;247;2128;-74
2021/11/21 06:03:31;;;;;;;;;;;19.10;35.20;;;;;;478989;247;1235;-74
2021/11/21 06:05:32;;;;;;;;;;;19.10;35.20;;;;;;478917;247;1243;-74
2021/11/21 06:07:34;;;;;;;;;;;19.10;35.20;;;;;;478905;247;1173;-74
2021/11/21 06:09:35;;;;;;;;;;;19.10;35.20;;;;;;478944;247;1167;-74
2021/11/21 06:11:36;;;;;;;;;;;19.10;35.20;;;;;;478773;247;1264;-74
2021/11/21 06:13:38;;;;;;;;;;;19.10;35.20;;;;;;478898;247;1261;-74
2021/11/21 06:15:39;;;;;;;;;;;19.00;35.20;;;;;;478894;247;1086;-74
2021/11/21 06:17:42;;;;;;;;;;;19.10;35.20;;;;;;478857;247;1182;-74
2021/11/21 06:19:44;;;;;;;;;;;19.00;35.10;;;;;;478869;248;1404;-74
2021/11/21 06:21:43;;;;;;;;;;;19.10;35.00;;;;;;478787;248;2182;-74
2021/11/21 06:23:44;;;;;;;;;;;19.10;35.00;;;;;;478900;247;1036;-74
2021/11/21 06:25:46;;;;;;;;;;;19.10;35.00;;;;;;478827;247;1105;-74
2021/11/21 06:27:47;;;;;;;;;;;19.00;35.00;;;;;;478863;247;1167;-74
2021/11/21 06:29:48;;;;;;;;;;;19.00;34.90;;;;;;478900;247;1271;-74
2021/11/21 06:31:50;;;;;;;;;;;19.00;35.00;;;;;;478898;247;1160;-74
2021/11/21 06:33:51;;;;;;;;;;;19.00;35.00;;;;;;478903;247;1169;-74
2021/11/21 06:35:53;;;;;;;;;;;19.00;34.90;;;;;;478885;247;1177;-74
2021/11/21 06:37:54;;;;;;;;;;;19.00;34.90;;;;;;478808;247;1332;-74
2021/11/21 06:39:55;;;;;;;;;;;19.00;34.90;;;;;;478838;247;975;-74
2021/11/21 06:41:57;;;;;;;;;;;19.00;34.90;;;;;;478737;247;2178;-74
2021/11/21 06:43:58;;;;;;;;;;;19.00;34.80;;;;;;478949;247;1007;-74
2021/11/21 06:45:59;;;;;;;;;;;19.00;34.80;;;;;;478824;247;1258;-74
2021/11/21 06:48:01;;;;;;;;;;;19.00;34.80;;;;;;478975;247;1179;-74
2021/11/21 06:50:02;;;;;;;;;;;19.00;34.70;;;;;;478930;247;957;-74
2021/11/21 06:52:03;;;;;;;;;;;19.00;34.70;;;;;;478819;247;1215;-74
2021/11/21 06:54:05;;;;;;;;;;;19.00;34.70;;;;;;478901;247;957;-74
2021/11/21 06:56:06;;;;;;;;;;;19.00;34.70;;;;;;478863;247;1264;-74
2021/11/21 06:58:07;;;;;;;;;;;19.00;34.80;;;;;;478840;247;1131;-74
2021/11/21 07:00:09;;;;;;;;;;;19.00;34.80;;;;;;478946;247;2182;-74
2021/11/21 07:02:10;;;;;;;;;;;18.90;34.70;;;;;;478938;247;1146;-74
2021/11/21 07:04:11;;;;;;;;;;;19.00;34.70;;;;;;478893;247;1191;-74
2021/11/21 07:06:13;;;;;;;;;;;19.00;34.60;;;;;;478840;247;1216;-74
2021/11/21 07:08:15;;;;;;;;;;;19.00;34.60;;;;;;478866;247;965;-74
2021/11/21 07:10:15;;;;;;;;;;;19.10;34.50;;;;;;478970;248;1402;-74
2021/11/21 07:12:17;;;;;;;;;;;19.10;34.50;;;;;;478912;247;1092;-74
2021/11/21 07:14:18;;;;;;;;;;;19.10;34.40;;;;;;478954;247;998;-74
2021/11/21 07:16:20;;;;;;;;;;;19.10;34.30;;;;;;478894;247;1210;-74
2021/11/21 07:18:21;;;;;;;;;;;19.20;34.30;;;;;;478886;247;1128;-74
2021/11/21 07:20:22;;;;;;;;;;;19.20;34.10;;;;;;478903;247;2135;-74
2021/11/21 07:22:24;;;;;;;;;;;19.20;34.00;;;;;;478818;247;1074;-74
2021/11/21 07:24:25;;;;;;;;;;;19.20;34.00;;;;;;478906;247;956;-74
2021/11/21 07:26:26;;;;;;;;;;;19.20;33.90;;;;;;478787;247;1212;-74
2021/11/21 07:28:27;;;;;;;;;;;19.30;33.90;;;;;;478871;247;957;-74
2021/11/21 07:30:29;;;;;;;;;;;19.30;33.80;;;;;;478910;247;1250;-74
2021/11/21 07:32:30;;;;;;;;;;;19.30;33.70;;;;;;478881;247;1149;-74
2021/11/21 07:34:32;;;;;;;;;;;19.30;33.70;;;;;;478931;247;1104;-74
2021/11/21 07:36:33;;;;;;;;;;;19.30;33.60;;;;;;478913;247;1178;-74
2021/11/21 07:38:35;;;;;;;;;;;19.40;33.70;;;;;;478894;247;1144;-74
2021/11/21 07:40:36;;;;;;;;;;;19.40;33.60;;;;;;478939;247;2234;-74
2021/11/21 07:42:37;;;;;;;;;;;19.40;33.60;;;;;;478939;247;1206;-74
2021/11/21 07:44:39;;;;;;;;;;;19.40;33.70;;;;;;478890;247;1042;-74
2021/11/21 07:46:40;;;;;;;;;;;19.40;33.60;;;;;;478839;247;1238;-74
2021/11/21 07:48:41;;;;;;;;;;;19.40;33.70;;;;;;478951;247;1198;-74
2021/11/21 07:50:43;;;;;;;;;;;19.40;33.70;;;;;;478889;247;965;-74
2021/11/21 07:52:44;;;;;;;;;;;19.40;33.60;;;;;;478852;247;1134;-74
2021/11/21 07:54:46;;;;;;;;;;;19.40;33.60;;;;;;478803;247;1128;-74
2021/11/21 07:56:47;;;;;;;;;;;19.50;33.60;;;;;;478829;247;982;-74
2021/11/21 07:58:48;;;;;;;;;;;19.40;33.50;;;;;;478862;247;1096;-74
2021/11/21 08:00:50;;;;;;;;;;;19.40;33.50;;;;;;478804;247;2190;-74
2021/11/21 08:02:51;;;;;;;;;;;19.40;33.50;;;;;;478899;247;1311;-74
2021/11/21 08:04:53;;;;;;;;;;;19.40;33.50;;;;;;478960;247;1110;-74
2021/11/21 08:06:54;;;;;;;;;;;19.40;33.50;;;;;;478980;247;1211;-74
2021/11/21 08:08:55;;;;;;;;;;;19.50;33.40;;;;;;478912;248;1408;-74
2021/11/21 08:10:57;;;;;;;;;;;19.50;33.50;;;;;;478922;247;1227;-74
2021/11/21 08:12:58;;;;;;;;;;;19.40;33.40;;;;;;478922;247;1154;-74
2021/11/21 08:14:59;;;;;;;;;;;19.50;33.50;;;;;;478960;247;930;-74
2021/11/21 08:17:01;;;;;;;;;;;19.40;33.50;;;;;;478856;247;1187;-74
2021/11/21 08:19:02;;;;;;;;;;;19.40;33.50;;;;;;478956;247;1184;-74
2021/11/21 08:21:03;;;;;;;;;;;19.40;33.50;;;;;;478922;247;2132;-74
2021/11/21 08:23:05;;;;;;;;;;;19.50;33.50;;;;;;478912;247;1140;-74
2021/11/21 08:25:06;;;;;;;;;;;19.40;33.50;;;;;;478963;247;943;-74
2021/11/21 08:27:07;;;;;;;;;;;19.50;33.60;;;;;;478837;247;1225;-74
2021/11/21 08:29:09;;;;;;;;;;;19.40;33.50;;;;;;478952;247;987;-74
2021/11/21 08:31:10;;;;;;;;;;;19.50;33.50;;;;;;478829;247;1209;-74
2021/11/21 08:33:11;;;;;;;;;;;19.40;33.50;;;;;;478863;247;1179;-74
2021/11/21 08:35:12;;;;;;;;;;;19.40;33.50;;;;;;478973;247;1335;-74
2021/11/21 08:37:14;;;;;;;;;;;19.40;33.60;;;;;;478852;247;1096;-74
2021/11/21 08:39:15;;;;;;;;;;;19.40;33.60;;;;;;478931;247;947;-74
2021/11/21 08:41:17;;;;;;;;;;;19.30;33.60;;;;;;478927;247;2206;-74
2021/11/21 08:43:18;;;;;;;;;;;19.30;33.70;;;;;;478871;247;1159;-74
2021/11/21 08:45:19;;;;;;;;;;;19.30;33.70;;;;;;478833;247;1306;-74
2021/11/21 08:47:21;;;;;;;;;;;19.20;33.70;;;;;;478892;247;1080;-74
2021/11/21 08:49:22;;;;;;;;;;;19.20;33.70;;;;;;478982;247;1164;-74
2021/11/21 08:51:23;;;;;;;;;;;19.20;33.80;;;;;;478888;247;1233;-74
2021/11/21 08:53:25;;;;;;;;;;;19.20;33.80;;;;;;478993;247;1060;-74
2021/11/21 08:55:26;;;;;;;;;;;19.20;33.90;;;;;;478945;247;962;-74
2021/11/21 08:57:27;;;;;;;;;;;19.10;33.80;;;;;;478897;247;1209;-74
2021/11/21 08:59:29;;;;;;;;;;;19.10;34.00;;;;;;478902;247;1042;-74
2021/11/21 09:01:30;;;;;;;;;;;19.10;34.00;;;;;;478781;247;2193;-74
2021/11/21 09:03:31;;;;;;;;;;;19.10;34.10;;;;;;478864;247;1147;-74
2021/11/21 09:05:33;;;;;;;;;;;19.10;34.10;;;;;;478845;247;1216;-74
2021/11/21 09:07:34;;;;;;;;;;;19.10;34.20;;;;;;478913;247;1069;-74
2021/11/21 09:09:35;;;;;;;;;;;19.10;34.20;;;;;;478907;247;985;-74
2021/11/21 09:11:37;;;;;;;;;;;19.00;34.30;;;;;;478854;247;1219;-74
2021/11/21 09:13:38;;;;;;;;;;;19.00;34.30;;;;;;478863;247;994;-74
2021/11/21 09:15:39;;;;;;;;;;;19.00;34.40;;;;;;478860;247;1190;-74
2021/11/21 09:17:41;;;;;;;;;;;19.00;34.40;;;;;;478849;247;1175;-74
2021/11/21 09:19:42;;;;;;;;;;;19.00;34.40;;;;;;478969;247;1052;-74
2021/11/21 09:21:43;;;;;;;;;;;19.00;34.50;;;;;;478878;247;2203;-74
2021/11/21 09:23:45;;;;;;;;;;;19.00;34.60;;;;;;478871;247;1114;-74
2021/11/21 09:25:46;;;;;;;;;;;19.00;34.60;;;;;;478856;247;1217;-74
2021/11/21 09:27:47;;;;;;;;;;;18.90;34.50;;;;;;478810;247;1267;-74
2021/11/21 09:29:49;;;;;;;;;;;19.00;34.60;;;;;;478863;247;959;-74
2021/11/21 09:31:50;;;;;;;;;;;19.00;34.60;;;;;;478823;247;1098;-74
2021/11/21 09:33:52;;;;;;;;;;;19.00;34.70;;;;;;478915;247;1127;-74
2021/11/21 09:35:53;;;;;;;;;;;19.00;34.70;;;;;;478892;247;1227;-74
2021/11/21 09:37:54;;;;;;;;;;;19.00;34.70;;;;;;478894;247;1067;-74
2021/11/21 09:39:55;;;;;;;;;;;19.10;34.80;;;;;;478905;247;945;-74
2021/11/21 09:41:57;;;;;;;;;;;19.10;34.80;;;;;;478831;247;2198;-74
2021/11/21 09:43:58;;;;;;;;;;;19.10;34.70;;;;;;479018;247;1167;-74
2021/11/21 09:45:59;;;;;;;;;;;19.10;34.70;;;;;;478875;247;1151;-74
2021/11/21 09:48:01;;;;;;;;;;;19.10;34.80;;;;;;478936;247;1090;-74
2021/11/21 09:50:02;;;;;;;;;;;19.10;34.80;;;;;;478930;247;1178;-74
2021/11/21 09:52:04;;;;;;;;;;;19.10;34.80;;;;;;478867;247;1161;-74
2021/11/21 09:54:05;;;;;;;;;;;19.10;34.80;;;;;;478913;244;1241;-74
2021/11/21 09:56:06;;;;;;;;;;;19.10;34.80;;;;;;478904;247;1237;-74
2021/11/21 09:58:08;;;;;;;;;;;19.10;34.80;;;;;;478882;247;1164;-74
2021/11/21 10:00:09;;;;;;;;;;;19.10;34.80;;;;;;478912;247;1110;-74
2021/11/21 10:02:10;;;;;;;;;;;19.20;34.90;;;;;;478808;247;2195;-74
2021/11/21 10:04:12;;;;;;;;;;;19.20;34.90;;;;;;478896;247;1156;-73
2021/11/21 10:06:13;;;;;;;;;;;19.20;34.90;;;;;;478870;247;1078;-74
2021/11/21 10:08:14;;;;;;;;;;;19.10;34.90;;;;;;478860;247;997;-74
2021/11/21 10:10:16;;;;;;;;;;;19.10;34.90;;;;;;478888;247;1068;-74
2021/11/21 10:12:17;;;;;;;;;;;19.10;35.00;;;;;;478870;247;988;-74
2021/11/21 10:14:19;;;;;;;;;;;19.10;35.00;;;;;;478968;247;1027;-74
2021/11/21 10:16:20;;;;;;;;;;;19.10;35.10;;;;;;478902;247;973;-74
2021/11/21 10:18:21;;;;;;;;;;;19.00;35.10;;;;;;478987;247;935;-74
2021/11/21 10:20:22;;;;;;;;;;;19.00;35.10;;;;;;478926;247;1093;-74
2021/11/21 10:22:24;;;;;;;;;;;19.00;35.10;;;;;;478869;247;2198;-74
2021/11/21 10:24:26;;;;;;;;;;;19.00;35.10;;;;;;478962;247;1054;-74
2021/11/21 10:26:26;;;;;;;;;;;19.00;35.20;;;;;;478870;248;1448;-74
2021/11/21 10:28:28;;;;;;;;;;;19.00;35.10;;;;;;478942;247;950;-74
2021/11/21 10:30:29;;;;;;;;;;;19.00;35.10;;;;;;478932;247;952;-74
2021/11/21 10:32:32;;;;;;;;;;;19.00;35.10;;;;;;478854;247;1284;-74
2021/11/21 10:34:32;;;;;;;;;;;19.10;35.10;;;;;;478923;248;1459;-74
2021/11/21 10:36:33;;;;;;;;;;;19.10;35.10;;;;;;478828;247;1224;-74
2021/11/21 10:38:35;;;;;;;;;;;19.10;35.10;;;;;;478920;247;1127;-74
2021/11/21 10:40:36;;;;;;;;;;;19.00;35.10;;;;;;478928;247;954;-74
2021/11/21 10:42:37;;;;;;;;;;;19.00;35.10;;;;;;478925;247;2116;-74
2021/11/21 10:44:39;;;;;;;;;;;19.00;35.20;;;;;;478953;247;954;-74
2021/11/21 10:46:40;;;;;;;;;;;18.90;35.20;;;;;;478871;247;1140;-74
2021/11/21 10:48:41;;;;;;;;;;;18.90;35.40;;;;;;478922;247;999;-74
2021/11/21 10:50:49;;;;;;;;;;;18.90;35.40;;;;;;479054;247;1169;-74
2021/11/21 10:52:44;;;;;;;;;;;18.90;35.40;;;;;;478602;248;1464;-74
2021/11/21 10:54:45;;;;;;;;;;;18.90;35.50;;;;;;478890;247;1087;-74
2021/11/21 10:56:47;;;;;;;;;;;18.90;35.40;;;;;;478753;247;1196;-74
2021/11/21 10:58:49;;;;;;;;;;;18.90;35.40;;;;;;478904;247;994;-74
2021/11/21 11:00:49;;;;;;;;;;;18.90;35.40;;;;;;478822;247;1957;-74
2021/11/21 11:02:51;;;;;;;;;;;18.90;35.40;;;;;;478879;247;2198;-74
2021/11/21 11:04:52;;;;;;;;;;;19.00;35.40;;;;;;478973;247;1506;-74
2021/11/21 11:06:54;;;;;;;;;;;19.00;35.40;;;;;;478886;247;1217;-74
2021/11/21 11:08:55;;;;;;;;;;;18.90;35.40;;;;;;478980;247;1021;-74
2021/11/21 11:10:58;;;;;;;;;;;19.00;35.50;;;;;;478942;247;1245;-74
2021/11/21 11:12:58;;;;;;;;;;;18.90;35.60;;;;;;478787;247;1412;-74
2021/11/21 11:14:59;;;;;;;;;;;18.80;35.60;;;;;;478918;247;979;-74
2021/11/21 11:17:00;;;;;;;;;;;18.80;35.60;;;;;;478936;247;1316;-74
2021/11/21 11:19:02;;;;;;;;;;;18.90;35.70;;;;;;478953;247;1133;-74
2021/11/21 11:21:03;;;;;;;;;;;18.80;35.60;;;;;;478985;247;1139;-73
2021/11/21 11:23:05;;;;;;;;;;;18.80;35.60;;;;;;478906;247;2143;-73
2021/11/21 11:25:06;;;;;;;;;;;18.80;35.70;;;;;;478919;247;1096;-73
2021/11/21 11:27:08;;;;;;;;;;;18.80;35.70;;;;;;478878;247;1218;-74
2021/11/21 11:29:09;;;;;;;;;;;18.90;35.70;;;;;;478873;247;1085;-74
2021/11/21 11:31:11;;;;;;;;;;;18.90;35.70;;;;;;478833;247;1243;-74
2021/11/21 11:33:12;;;;;;;;;;;18.90;35.70;;;;;;478909;247;1129;-74
2021/11/21 11:35:13;;;;;;;;;;;18.80;35.70;;;;;;478914;247;1148;-74
2021/11/21 11:37:15;;;;;;;;;;;18.90;35.70;;;;;;478842;247;1207;-74
2021/11/21 11:39:17;;;;;;;;;;;18.90;35.70;;;;;;478949;247;991;-74
2021/11/21 11:41:17;;;;;;;;;;;18.90;35.70;;;;;;478819;248;1373;-74
2021/11/21 11:43:19;;;;;;;;;;;18.90;35.70;;;;;;479005;247;2175;-74
2021/11/21 11:45:20;;;;;;;;;;;18.90;35.70;;;;;;478900;247;963;-74
2021/11/21 11:47:21;;;;;;;;;;;18.90;35.70;;;;;;478879;247;1125;-74
2021/11/21 11:49:23;;;;;;;;;;;18.90;35.70;;;;;;478955;247;1108;-74
2021/11/21 11:51:24;;;;;;;;;;;18.90;35.70;;;;;;478896;247;1739;-74
2021/11/21 11:53:25;;;;;;;;;;;18.90;35.80;;;;;;478978;247;1210;-74
2021/11/21 11:55:27;;;;;;;;;;;18.80;35.80;;;;;;478905;247;986;-74
2021/11/21 11:57:29;;;;;;;;;;;18.90;35.90;;;;;;478907;247;1263;-74
2021/11/21 11:59:30;;;;;;;;;;;18.80;35.80;;;;;;478874;247;1006;-74